Weather at Khanty Mansiysk Airport

Public forecast

Using degrees Celsius for public forecast. Weather courtesy of forecast.io.

Current aviation weather report (METAR) for Khanty Mansiysk Airport

2023/09/30 06:00 (retrieved 20 minutes ago)

USHH 300600Z 04001MPS CAVOK 02/M03 Q1025 R24/010060 NOSIG

Aviation forecast (TAF) for Khanty Mansiysk Airport

2023/09/30 06:00 (retrieved 20 minutes ago)

TAF USHH 300437Z 3006/0106 03003G08MPS 9999 SCT020 TEMPO 3006/3010 SCT002 BECMG 3010/3012 20003G09MPS TEMPO 3015/0103 VRB01MPS 5000 BR MIFG FEW002 SCT016